createdAt,value
2023-01-31T00:01:49.007Z,2.50
2023-01-31T00:04:16.268Z,2.50
2023-01-31T00:06:50.845Z,2.40
2023-01-31T00:09:18.349Z,2.30
2023-01-31T00:11:45.810Z,2.00
2023-01-31T00:14:18.460Z,1.90
2023-01-31T00:16:45.887Z,1.90
2023-01-31T00:19:13.185Z,1.80
2023-01-31T00:21:43.680Z,1.70
2023-01-31T00:24:14.940Z,1.50
2023-01-31T00:26:42.685Z,1.50
2023-01-31T00:29:10.531Z,1.60
2023-01-31T00:31:38.834Z,1.60
2023-01-31T00:34:06.858Z,1.50
2023-01-31T00:36:35.993Z,1.70
2023-01-31T00:39:05.559Z,1.60
2023-01-31T00:41:33.866Z,1.60
2023-01-31T00:44:01.904Z,1.80
2023-01-31T00:46:31.408Z,1.90
2023-01-31T00:48:59.523Z,2.10
2023-01-31T00:51:27.108Z,2.20
2023-01-31T00:53:55.057Z,2.20
2023-01-31T00:56:24.326Z,2.20
2023-01-31T00:58:52.396Z,2.30
2023-01-31T01:01:23.067Z,2.50
2023-01-31T01:03:51.841Z,2.50
2023-01-31T01:06:19.723Z,2.50
2023-01-31T01:08:48.057Z,2.60
2023-01-31T01:11:25.428Z,2.70
2023-01-31T01:13:53.415Z,2.70
2023-01-31T01:16:24.025Z,2.70
2023-01-31T01:18:54.802Z,2.70
2023-01-31T01:21:25.613Z,2.60
2023-01-31T01:23:55.339Z,2.40
2023-01-31T01:26:26.167Z,2.30
2023-01-31T01:28:54.915Z,2.10
2023-01-31T01:31:22.717Z,2.00
2023-01-31T01:33:52.267Z,1.90
2023-01-31T01:36:22.011Z,1.90
2023-01-31T01:38:49.802Z,1.80
2023-01-31T01:41:17.484Z,1.70
2023-01-31T01:43:46.239Z,1.50
2023-01-31T01:46:31.732Z,1.50
2023-01-31T01:49:20.962Z,1.50
2023-01-31T01:51:51.763Z,1.70
2023-01-31T01:54:25.854Z,1.70
2023-01-31T01:56:58.282Z,1.70
2023-01-31T01:59:31.304Z,1.70
2023-01-31T02:01:58.738Z,1.70
2023-01-31T02:04:34.136Z,1.90
2023-01-31T02:07:02.758Z,1.90
2023-01-31T02:09:32.952Z,2.10
2023-01-31T02:12:00.338Z,2.20
2023-01-31T02:14:28.135Z,2.20
2023-01-31T02:16:55.594Z,2.30
2023-01-31T02:19:43.455Z,2.20
2023-01-31T02:22:23.906Z,2.10
2023-01-31T02:25:29.479Z,2.00
2023-01-31T02:28:21.643Z,1.90
2023-01-31T02:31:07.579Z,1.90
2023-01-31T02:33:52.595Z,1.90
2023-01-31T02:36:52.346Z,1.70
2023-01-31T02:39:28.263Z,1.50
2023-01-31T02:42:13.032Z,1.70
2023-01-31T02:45:15.585Z,1.60
2023-01-31T02:47:55.230Z,1.60
2023-01-31T02:50:38.617Z,1.50
2023-01-31T02:53:12.883Z,1.60
2023-01-31T02:56:13.512Z,1.50
2023-01-31T02:58:44.865Z,1.40
2023-01-31T03:01:17.490Z,1.30
2023-01-31T03:03:46.709Z,1.30
2023-01-31T03:06:26.972Z,1.50
2023-01-31T03:09:22.294Z,1.60
2023-01-31T03:12:09.197Z,1.50
2023-01-31T03:14:55.400Z,1.50
2023-01-31T03:17:45.240Z,1.50
2023-01-31T03:20:45.668Z,1.60
2023-01-31T03:23:23.209Z,1.50
2023-01-31T03:26:03.539Z,1.40
2023-01-31T03:29:03.278Z,1.40
2023-01-31T03:31:54.440Z,1.30
2023-01-31T03:34:36.181Z,1.30
2023-01-31T03:38:02.970Z,1.40
2023-01-31T03:40:41.264Z,1.50
2023-01-31T03:46:44.941Z,2.00
2023-01-31T03:49:50.982Z,2.10
2023-01-31T03:52:41.795Z,2.20
2023-01-31T03:55:20.098Z,2.20
2023-01-31T03:57:52.704Z,2.20
2023-01-31T04:00:22.934Z,2.30
2023-01-31T04:03:01.247Z,2.30
2023-01-31T04:05:32.506Z,2.40
2023-01-31T04:08:01.279Z,2.60
2023-01-31T04:10:31.040Z,2.60
2023-01-31T04:12:58.457Z,2.70
2023-01-31T04:15:25.849Z,2.70
2023-01-31T04:17:53.149Z,2.80
2023-01-31T04:20:20.481Z,2.80
2023-01-31T04:22:47.725Z,2.80
2023-01-31T04:25:15.045Z,2.80
2023-01-31T04:27:42.333Z,2.80
2023-01-31T04:30:10.766Z,2.90
2023-01-31T04:32:38.015Z,2.90
2023-01-31T04:35:06.059Z,2.80
2023-01-31T04:37:33.986Z,2.80
2023-01-31T04:40:01.657Z,2.80
2023-01-31T04:42:28.992Z,2.80
2023-01-31T04:44:56.240Z,2.80
2023-01-31T04:47:23.503Z,2.90
2023-01-31T04:49:50.807Z,2.90
2023-01-31T04:52:18.022Z,2.90
2023-01-31T04:54:45.404Z,3.10
2023-01-31T04:57:12.692Z,3.10
2023-01-31T04:59:39.959Z,3.20
2023-01-31T05:02:07.369Z,3.20
2023-01-31T05:04:34.699Z,3.30
2023-01-31T05:07:01.948Z,3.30
2023-01-31T05:09:29.197Z,3.40
2023-01-31T05:11:56.456Z,3.40
2023-01-31T05:14:23.763Z,3.40
2023-01-31T05:16:51.089Z,3.40
2023-01-31T05:19:18.360Z,3.30
2023-01-31T05:22:00.920Z,3.30
2023-01-31T05:24:31.396Z,3.20
2023-01-31T05:27:01.594Z,3.20
2023-01-31T05:29:31.041Z,3.30
2023-01-31T05:32:00.326Z,3.20
2023-01-31T05:34:30.532Z,3.20
2023-01-31T05:36:57.748Z,3.20
2023-01-31T05:39:25.328Z,3.20
2023-01-31T05:41:55.276Z,3.10
2023-01-31T05:44:23.005Z,3.20
2023-01-31T05:46:50.552Z,3.10
2023-01-31T05:49:17.917Z,3.20
2023-01-31T05:51:45.167Z,3.30
2023-01-31T05:54:12.612Z,3.30
2023-01-31T05:56:40.039Z,3.30
2023-01-31T05:59:07.560Z,3.30
2023-01-31T06:01:34.825Z,3.30
2023-01-31T06:04:02.127Z,3.30
2023-01-31T06:06:29.442Z,3.30
2023-01-31T06:08:56.758Z,3.30
2023-01-31T06:11:25.216Z,3.30
2023-01-31T06:13:52.691Z,3.20
2023-01-31T06:16:20.031Z,3.20
2023-01-31T06:18:47.361Z,3.20
2023-01-31T06:21:16.285Z,3.20
2023-01-31T06:23:46.196Z,3.20
2023-01-31T06:26:14.432Z,3.20
2023-01-31T06:28:41.788Z,3.20
2023-01-31T06:31:10.507Z,3.10
2023-01-31T06:33:45.992Z,3.10
2023-01-31T06:36:18.439Z,3.10
2023-01-31T06:38:50.788Z,3.20
2023-01-31T06:41:19.330Z,3.20
2023-01-31T06:43:46.617Z,3.20
2023-01-31T06:46:13.965Z,3.30
2023-01-31T06:48:41.289Z,3.40
2023-01-31T06:51:08.684Z,3.40
2023-01-31T06:53:36.138Z,3.30
2023-01-31T06:56:03.507Z,3.40
2023-01-31T06:58:30.808Z,3.50
2023-01-31T07:01:03.547Z,3.60
2023-01-31T07:03:31.358Z,3.60
2023-01-31T07:05:58.777Z,3.70
2023-01-31T07:08:26.095Z,3.70
2023-01-31T07:10:53.549Z,3.70
2023-01-31T07:13:20.898Z,3.60
2023-01-31T07:15:48.221Z,3.60
2023-01-31T07:18:15.475Z,3.60
2023-01-31T07:20:43.119Z,3.60
2023-01-31T07:23:10.516Z,3.60
2023-01-31T07:25:37.784Z,3.70
2023-01-31T07:28:05.253Z,3.80
2023-01-31T07:30:32.580Z,3.80
2023-01-31T07:33:00.761Z,3.70
2023-01-31T07:35:28.274Z,3.80
2023-01-31T07:37:55.564Z,3.90
2023-01-31T07:40:22.805Z,4.00
2023-01-31T07:42:50.290Z,4.00
2023-01-31T07:45:23.456Z,4.10
2023-01-31T07:47:51.848Z,4.10
2023-01-31T07:50:20.563Z,4.20
2023-01-31T07:52:49.220Z,4.20
2023-01-31T07:55:16.680Z,4.30
2023-01-31T07:57:43.989Z,4.40
2023-01-31T08:00:31.034Z,4.50
2023-01-31T08:03:16.913Z,4.50
2023-01-31T08:05:46.879Z,4.50
2023-01-31T08:08:14.265Z,4.50
2023-01-31T08:10:41.692Z,4.60
2023-01-31T08:13:11.136Z,4.70
2023-01-31T08:15:38.503Z,4.80
2023-01-31T08:18:06.611Z,4.70
2023-01-31T08:20:37.421Z,4.70
2023-01-31T08:23:04.865Z,4.60
2023-01-31T08:25:32.368Z,4.60
2023-01-31T08:28:00.474Z,4.60
2023-01-31T08:30:29.654Z,4.60
2023-01-31T08:32:57.243Z,4.60
2023-01-31T08:35:26.297Z,4.60
2023-01-31T08:38:00.929Z,4.60
2023-01-31T08:40:34.357Z,4.70
2023-01-31T08:43:01.873Z,4.70
2023-01-31T08:45:30.349Z,4.80
2023-01-31T08:48:00.166Z,4.90
2023-01-31T08:50:30.157Z,5.00
2023-01-31T08:53:04.145Z,5.00
2023-01-31T08:55:34.409Z,5.10
2023-01-31T08:58:02.643Z,5.20
2023-01-31T09:00:30.226Z,5.40
2023-01-31T09:03:00.105Z,5.30
2023-01-31T09:05:29.158Z,5.40
2023-01-31T09:07:56.566Z,5.30
2023-01-31T09:10:24.635Z,5.30
2023-01-31T09:12:52.022Z,5.40
2023-01-31T09:15:19.721Z,5.40
2023-01-31T09:17:47.220Z,5.60
2023-01-31T09:20:14.629Z,5.60
2023-01-31T09:22:41.931Z,5.60
2023-01-31T09:25:09.895Z,5.60
2023-01-31T09:27:38.578Z,5.60
2023-01-31T09:30:10.056Z,5.70
2023-01-31T09:32:38.651Z,5.70
2023-01-31T09:35:06.439Z,5.90
2023-01-31T09:37:33.808Z,6.10
2023-01-31T09:40:01.055Z,6.10
2023-01-31T09:42:42.278Z,6.10
2023-01-31T09:45:25.681Z,6.10
2023-01-31T09:47:56.669Z,6.00
2023-01-31T09:50:30.798Z,5.90
2023-01-31T09:52:58.521Z,5.70
2023-01-31T09:55:51.348Z,5.70
2023-01-31T09:58:27.550Z,5.80
2023-01-31T10:01:03.360Z,6.10
2023-01-31T10:03:42.694Z,6.30
2023-01-31T10:06:40.959Z,6.30
2023-01-31T10:09:22.834Z,6.50
2023-01-31T10:12:11.875Z,6.70
2023-01-31T10:15:05.061Z,6.80
2023-01-31T10:17:44.194Z,6.70
2023-01-31T10:20:22.386Z,6.80
2023-01-31T10:23:14.006Z,6.80
2023-01-31T10:25:48.481Z,6.90
2023-01-31T10:28:30.586Z,6.90
2023-01-31T10:31:07.454Z,7.00
2023-01-31T10:34:08.525Z,7.20
2023-01-31T10:37:01.280Z,7.40
2023-01-31T10:39:40.670Z,7.70
2023-01-31T10:42:31.590Z,7.90
2023-01-31T10:45:18.907Z,7.70
2023-01-31T10:47:52.226Z,7.80
2023-01-31T10:50:28.518Z,7.90
2023-01-31T10:53:13.832Z,7.80
2023-01-31T10:55:52.983Z,7.90
2023-01-31T10:58:25.023Z,7.70
2023-01-31T11:00:52.703Z,7.60
2023-01-31T11:03:20.165Z,7.40
2023-01-31T11:05:54.804Z,7.30
2023-01-31T11:08:25.015Z,7.10
2023-01-31T11:10:55.072Z,7.00
2023-01-31T11:13:23.234Z,7.00
2023-01-31T11:15:54.314Z,6.90
2023-01-31T11:18:46.636Z,6.80
2023-01-31T11:21:30.180Z,6.70
2023-01-31T11:24:15.839Z,6.60
2023-01-31T11:26:52.847Z,6.60
2023-01-31T11:29:34.277Z,6.70
2023-01-31T11:32:05.449Z,6.70
2023-01-31T11:34:33.865Z,6.80
2023-01-31T11:37:18.927Z,6.90
2023-01-31T11:40:19.773Z,7.00
2023-01-31T11:42:52.659Z,7.00
2023-01-31T11:45:27.678Z,6.90
2023-01-31T11:48:18.625Z,7.00
2023-01-31T11:50:52.308Z,7.10
2023-01-31T11:53:38.742Z,7.20
2023-01-31T11:56:20.537Z,7.20
2023-01-31T11:58:53.615Z,7.20
2023-01-31T12:01:24.388Z,7.00
2023-01-31T12:04:03.139Z,7.00
2023-01-31T12:06:41.648Z,7.00
2023-01-31T12:09:24.202Z,7.00
2023-01-31T12:11:59.789Z,7.00
2023-01-31T12:14:39.833Z,7.00
2023-01-31T12:17:13.821Z,7.20
2023-01-31T12:19:50.417Z,7.20
2023-01-31T12:22:36.569Z,7.30
2023-01-31T12:25:33.609Z,7.30
2023-01-31T12:28:20.068Z,7.30
2023-01-31T12:31:15.367Z,7.30
2023-01-31T12:34:10.346Z,7.30
2023-01-31T12:36:52.586Z,7.30
2023-01-31T12:39:54.417Z,7.30
2023-01-31T12:42:54.344Z,7.30
2023-01-31T12:45:37.003Z,7.20
2023-01-31T12:48:46.050Z,7.20
2023-01-31T12:51:39.983Z,7.30
2023-01-31T12:54:30.319Z,7.20
2023-01-31T12:57:21.568Z,7.20
2023-01-31T13:00:10.871Z,7.20
2023-01-31T13:03:03.445Z,7.20
2023-01-31T13:05:51.616Z,7.10
2023-01-31T13:08:22.129Z,6.90
2023-01-31T13:11:02.431Z,6.70
2023-01-31T13:13:49.850Z,6.60
2023-01-31T13:16:24.776Z,6.60
2023-01-31T13:18:54.483Z,6.60
2023-01-31T13:21:27.180Z,6.60
2023-01-31T13:24:00.642Z,6.60
2023-01-31T13:26:35.509Z,6.60
2023-01-31T13:29:29.967Z,6.70
2023-01-31T13:32:21.633Z,6.70
2023-01-31T13:34:55.824Z,6.70
2023-01-31T13:37:23.828Z,6.70
2023-01-31T13:40:03.011Z,6.70
2023-01-31T13:42:32.825Z,6.70
2023-01-31T13:45:04.724Z,6.60
2023-01-31T13:47:47.392Z,6.60
2023-01-31T13:50:42.193Z,6.70
2023-01-31T13:53:25.988Z,6.70
2023-01-31T13:55:53.960Z,6.70
2023-01-31T13:58:35.320Z,6.80
2023-01-31T14:01:13.379Z,6.70
2023-01-31T14:04:16.856Z,6.70
2023-01-31T14:06:54.369Z,6.60
2023-01-31T14:09:33.042Z,6.70
2023-01-31T14:12:10.887Z,6.60
2023-01-31T14:14:41.726Z,6.60
2023-01-31T14:17:21.993Z,6.70
2023-01-31T14:19:49.496Z,6.60
2023-01-31T14:22:34.540Z,6.70
2023-01-31T14:25:03.852Z,6.70
2023-01-31T14:27:57.058Z,6.70
2023-01-31T14:30:32.690Z,6.70
2023-01-31T14:33:07.196Z,6.70
2023-01-31T14:35:46.829Z,6.70
2023-01-31T14:38:51.579Z,6.70
2023-01-31T14:41:49.720Z,6.70
2023-01-31T14:44:49.151Z,6.70
2023-01-31T14:47:34.971Z,6.80
2023-01-31T14:50:31.432Z,6.80
2023-01-31T14:53:14.191Z,6.80
2023-01-31T14:55:58.322Z,6.80
2023-01-31T14:58:29.537Z,6.80
2023-01-31T15:00:59.030Z,6.80
2023-01-31T15:03:48.308Z,6.80
2023-01-31T15:06:24.088Z,6.80
2023-01-31T15:09:14.264Z,6.80
2023-01-31T15:11:47.245Z,6.80
2023-01-31T15:14:35.355Z,6.90
2023-01-31T15:17:06.005Z,6.90
2023-01-31T15:19:52.497Z,6.90
2023-01-31T15:22:22.641Z,6.90
2023-01-31T15:24:54.034Z,6.90
2023-01-31T15:27:28.704Z,6.90
2023-01-31T15:29:58.629Z,7.00
2023-01-31T15:32:53.190Z,7.00
2023-01-31T15:35:32.902Z,7.00
2023-01-31T15:38:06.141Z,7.10
2023-01-31T15:40:33.582Z,7.10
2023-01-31T15:43:24.635Z,7.10
2023-01-31T15:45:52.506Z,7.10
2023-01-31T15:48:22.452Z,7.10
2023-01-31T15:50:56.581Z,7.20
2023-01-31T15:53:31.416Z,7.10
2023-01-31T15:56:05.215Z,7.10
2023-01-31T15:58:34.770Z,7.10
2023-01-31T16:01:03.510Z,7.10
2023-01-31T16:03:39.229Z,7.10
2023-01-31T16:06:22.315Z,7.10
2023-01-31T16:09:00.846Z,7.10
2023-01-31T16:11:34.132Z,7.10
2023-01-31T16:14:07.849Z,7.10
2023-01-31T16:16:36.378Z,7.10
2023-01-31T16:19:04.565Z,7.10
2023-01-31T16:21:45.329Z,7.10
2023-01-31T16:24:18.025Z,7.10
2023-01-31T16:27:11.545Z,7.10
2023-01-31T16:29:46.649Z,7.10
2023-01-31T16:32:29.678Z,7.10
2023-01-31T16:35:01.274Z,7.10
2023-01-31T16:37:32.346Z,6.90
2023-01-31T16:40:21.709Z,6.70
2023-01-31T16:42:49.705Z,6.60
2023-01-31T16:45:56.853Z,6.50
2023-01-31T16:48:29.169Z,6.60
2023-01-31T16:50:58.851Z,6.70
2023-01-31T16:53:27.921Z,6.70
2023-01-31T16:56:13.833Z,6.50
2023-01-31T16:58:46.099Z,6.60
2023-01-31T17:01:16.395Z,6.70
2023-01-31T17:03:44.221Z,6.70
2023-01-31T17:06:19.577Z,6.80
2023-01-31T17:08:47.391Z,6.80
2023-01-31T17:11:28.978Z,6.70
2023-01-31T17:14:05.199Z,6.70
2023-01-31T17:16:38.888Z,6.70
2023-01-31T17:19:06.442Z,6.80
2023-01-31T17:21:41.502Z,6.80
2023-01-31T17:24:13.330Z,6.80
2023-01-31T17:26:40.719Z,6.80
2023-01-31T17:29:08.108Z,6.90
2023-01-31T17:31:35.494Z,6.90
2023-01-31T17:34:03.736Z,7.00
2023-01-31T17:36:31.036Z,6.90
2023-01-31T17:38:58.292Z,6.90
2023-01-31T17:41:25.734Z,6.90
2023-01-31T17:43:53.037Z,6.70
2023-01-31T17:46:20.450Z,6.60
2023-01-31T17:48:47.757Z,6.30
2023-01-31T17:51:15.122Z,6.20
2023-01-31T17:53:50.018Z,6.10
2023-01-31T17:56:18.633Z,6.00
2023-01-31T17:58:45.949Z,5.90
2023-01-31T18:01:14.300Z,5.80
2023-01-31T18:03:42.705Z,5.70
2023-01-31T18:06:11.028Z,5.70
2023-01-31T18:08:38.553Z,5.70
2023-01-31T18:11:16.479Z,5.60
2023-01-31T18:13:44.112Z,5.60
2023-01-31T18:16:18.233Z,5.40
2023-01-31T18:18:45.571Z,5.40
2023-01-31T18:21:16.169Z,5.50
2023-01-31T18:23:43.920Z,5.50
2023-01-31T18:26:11.797Z,5.80
2023-01-31T18:28:39.124Z,5.90
2023-01-31T18:31:13.764Z,6.10
2023-01-31T18:33:46.390Z,6.10
2023-01-31T18:36:17.092Z,6.20
2023-01-31T18:38:46.379Z,6.30
2023-01-31T18:41:18.121Z,6.30
2023-01-31T18:43:46.452Z,6.30
2023-01-31T18:46:14.425Z,6.40
2023-01-31T18:48:41.952Z,6.50
2023-01-31T18:51:11.911Z,6.60
2023-01-31T18:53:41.930Z,6.60
2023-01-31T18:56:18.204Z,6.60
2023-01-31T18:58:49.099Z,6.60
2023-01-31T19:01:18.976Z,6.60
2023-01-31T19:03:50.000Z,6.70
2023-01-31T19:06:20.211Z,6.70
2023-01-31T19:08:49.421Z,6.80
2023-01-31T19:11:18.127Z,6.90
2023-01-31T19:13:45.803Z,6.80
2023-01-31T19:16:19.060Z,6.80
2023-01-31T19:18:47.296Z,6.80
2023-01-31T19:21:15.656Z,6.80
2023-01-31T19:23:43.524Z,6.80
2023-01-31T19:26:12.102Z,6.70
2023-01-31T19:28:40.557Z,6.60
2023-01-31T19:31:10.979Z,6.50
2023-01-31T19:33:39.117Z,6.50
2023-01-31T19:36:11.955Z,6.50
2023-01-31T19:38:39.484Z,6.50
2023-01-31T19:41:16.952Z,6.40
2023-01-31T19:43:44.927Z,6.40
2023-01-31T19:46:12.528Z,6.40
2023-01-31T19:48:39.927Z,6.40
2023-01-31T19:51:09.245Z,6.30
2023-01-31T19:53:37.156Z,6.10
2023-01-31T19:56:05.161Z,6.00
2023-01-31T19:58:32.705Z,5.90
2023-01-31T20:01:09.067Z,5.80
2023-01-31T20:03:36.745Z,5.50
2023-01-31T20:06:07.976Z,5.30
2023-01-31T20:08:36.139Z,5.20
2023-01-31T20:11:05.905Z,5.30
2023-01-31T20:13:33.812Z,5.10
2023-01-31T20:16:03.452Z,5.10
2023-01-31T20:18:31.560Z,5.10
2023-01-31T20:20:59.012Z,4.90
2023-01-31T20:23:28.490Z,4.70
2023-01-31T20:25:56.435Z,4.50
2023-01-31T20:28:24.460Z,4.70
2023-01-31T20:30:52.159Z,4.60
2023-01-31T20:33:19.836Z,4.60
2023-01-31T20:35:47.371Z,4.50
2023-01-31T20:38:18.146Z,4.90
2023-01-31T20:40:53.247Z,4.90
2023-01-31T20:43:23.829Z,4.80
2023-01-31T20:45:51.705Z,4.90
2023-01-31T20:48:22.356Z,4.80
2023-01-31T20:50:56.918Z,4.90
2023-01-31T20:53:24.561Z,5.10
2023-01-31T20:55:57.522Z,5.20
2023-01-31T20:58:26.195Z,5.30
2023-01-31T21:00:57.454Z,5.20
2023-01-31T21:03:24.842Z,5.20
2023-01-31T21:05:52.985Z,5.20
2023-01-31T21:08:21.179Z,5.20
2023-01-31T21:10:49.863Z,5.30
2023-01-31T21:13:18.018Z,5.20
2023-01-31T21:15:59.384Z,5.20
2023-01-31T21:18:28.751Z,5.50
2023-01-31T21:20:56.300Z,5.60
2023-01-31T21:23:24.233Z,5.70
2023-01-31T21:25:51.542Z,5.80
2023-01-31T21:28:18.818Z,5.80
2023-01-31T21:30:56.416Z,5.80
2023-01-31T21:33:25.089Z,5.90
2023-01-31T21:35:52.445Z,5.90
2023-01-31T21:38:20.394Z,6.10
2023-01-31T21:40:47.740Z,6.00
2023-01-31T21:43:16.175Z,6.20
2023-01-31T21:45:43.528Z,6.20
2023-01-31T21:48:29.643Z,6.20
2023-01-31T21:50:57.590Z,6.10
2023-01-31T21:53:27.490Z,5.90
2023-01-31T21:56:08.390Z,5.80
2023-01-31T21:58:37.493Z,5.60
2023-01-31T22:01:19.308Z,5.60
2023-01-31T22:03:48.685Z,5.70
2023-01-31T22:06:18.989Z,5.80
2023-01-31T22:08:53.779Z,5.80
2023-01-31T22:11:21.801Z,5.80
2023-01-31T22:13:52.664Z,6.00
2023-01-31T22:16:22.082Z,5.80
2023-01-31T22:18:49.766Z,5.70
2023-01-31T22:21:23.512Z,5.50
2023-01-31T22:23:53.129Z,5.50
2023-01-31T22:26:31.756Z,5.60
2023-01-31T22:29:01.196Z,5.50
2023-01-31T22:31:29.346Z,5.60
2023-01-31T22:33:57.101Z,5.70
2023-01-31T22:36:24.761Z,5.60
2023-01-31T22:38:52.961Z,5.40
2023-01-31T22:41:20.452Z,5.40
2023-01-31T22:43:50.062Z,5.30
2023-01-31T22:46:20.128Z,5.10
2023-01-31T22:48:49.311Z,5.00
2023-01-31T22:51:23.468Z,5.00
2023-01-31T22:53:50.762Z,5.00
2023-01-31T22:56:21.372Z,5.10
2023-01-31T22:58:54.016Z,5.20
2023-01-31T23:01:24.122Z,5.30
2023-01-31T23:03:55.283Z,5.40
2023-01-31T23:06:22.536Z,5.40
2023-01-31T23:08:49.885Z,5.40
2023-01-31T23:11:18.300Z,5.40
2023-01-31T23:13:46.415Z,5.30
2023-01-31T23:16:45.018Z,5.30
2023-01-31T23:19:13.081Z,5.30
2023-01-31T23:21:42.760Z,5.20
2023-01-31T23:24:12.149Z,5.10
2023-01-31T23:26:39.450Z,5.00
2023-01-31T23:29:06.925Z,5.00
2023-01-31T23:31:34.403Z,5.00
2023-01-31T23:34:01.971Z,5.20
2023-01-31T23:36:29.213Z,5.30
2023-01-31T23:38:56.461Z,5.40
2023-01-31T23:41:23.775Z,5.40
2023-01-31T23:43:51.061Z,5.50
2023-01-31T23:46:18.305Z,5.50
2023-01-31T23:48:45.547Z,5.60
2023-01-31T23:51:12.829Z,5.70
2023-01-31T23:53:40.125Z,5.60
2023-01-31T23:56:07.587Z,5.70
2023-01-31T23:58:34.861Z,5.70
